sensor_id;sensor_type;location;lat;lon;timestamp;pressure;altitude;pressure_sealevel;temperature;humidity
79400;BME280;68856;45.586;10.264;2023-04-24T00:00:31;98428.69;;;17.83;55.33
79400;BME280;68856;45.586;10.264;2023-04-24T00:02:58;98419.97;;;17.81;54.92
79400;BME280;68856;45.586;10.264;2023-04-24T00:05:24;98414.16;;;17.74;55.63
79400;BME280;68856;45.586;10.264;2023-04-24T00:07:51;98426.44;;;17.77;54.44
79400;BME280;68856;45.586;10.264;2023-04-24T00:10:21;98431.78;;;17.73;53.62
79400;BME280;68856;45.586;10.264;2023-04-24T00:12:47;98438.09;;;17.82;54.19
79400;BME280;68856;45.586;10.264;2023-04-24T00:15:14;98438.56;;;17.67;54.88
79400;BME280;68856;45.586;10.264;2023-04-24T00:17:40;98448.28;;;17.82;55.45
79400;BME280;68856;45.586;10.264;2023-04-24T00:20:06;98441.00;;;17.77;56.10
79400;BME280;68856;45.586;10.264;2023-04-24T00:22:33;98438.91;;;17.83;55.59
79400;BME280;68856;45.586;10.264;2023-04-24T00:24:59;98427.91;;;17.74;56.54
79400;BME280;68856;45.586;10.264;2023-04-24T00:27:26;98424.53;;;17.77;55.04
79400;BME280;68856;45.586;10.264;2023-04-24T00:29:52;98428.25;;;17.73;56.16
79400;BME280;68856;45.586;10.264;2023-04-24T00:32:18;98426.28;;;17.65;56.73
79400;BME280;68856;45.586;10.264;2023-04-24T00:34:44;98427.88;;;17.66;57.86
79400;BME280;68856;45.586;10.264;2023-04-24T00:37:11;98424.84;;;17.67;58.00
79400;BME280;68856;45.586;10.264;2023-04-24T00:39:37;98423.06;;;17.80;57.59
79400;BME280;68856;45.586;10.264;2023-04-24T00:42:04;98419.69;;;17.83;58.65
79400;BME280;68856;45.586;10.264;2023-04-24T00:44:33;98424.19;;;17.79;60.15
79400;BME280;68856;45.586;10.264;2023-04-24T00:47:00;98417.72;;;17.66;60.75
79400;BME280;68856;45.586;10.264;2023-04-24T00:49:27;98410.63;;;17.65;60.47
79400;BME280;68856;45.586;10.264;2023-04-24T00:51:53;98411.41;;;17.57;62.30
79400;BME280;68856;45.586;10.264;2023-04-24T00:54:20;98402.78;;;17.50;62.93
79400;BME280;68856;45.586;10.264;2023-04-24T00:56:46;98396.00;;;17.48;62.92
79400;BME280;68856;45.586;10.264;2023-04-24T00:59:14;98383.63;;;17.59;62.08
79400;BME280;68856;45.586;10.264;2023-04-24T01:01:42;98384.09;;;17.61;61.32
79400;BME280;68856;45.586;10.264;2023-04-24T01:04:10;98385.84;;;17.48;60.44
79400;BME280;68856;45.586;10.264;2023-04-24T01:06:39;98394.25;;;17.43;59.51
79400;BME280;68856;45.586;10.264;2023-04-24T01:09:06;98399.28;;;17.50;59.05
79400;BME280;68856;45.586;10.264;2023-04-24T01:11:37;98400.59;;;17.61;59.29
79400;BME280;68856;45.586;10.264;2023-04-24T01:14:03;98402.59;;;17.21;60.10
79400;BME280;68856;45.586;10.264;2023-04-24T01:16:30;98410.72;;;17.43;59.25
79400;BME280;68856;45.586;10.264;2023-04-24T01:18:56;98412.66;;;17.34;60.94
79400;BME280;68856;45.586;10.264;2023-04-24T01:21:24;98429.38;;;17.15;61.76
79400;BME280;68856;45.586;10.264;2023-04-24T01:23:53;98426.69;;;17.32;64.26
79400;BME280;68856;45.586;10.264;2023-04-24T01:26:19;98429.41;;;17.32;64.77
79400;BME280;68856;45.586;10.264;2023-04-24T01:28:46;98423.81;;;17.46;64.43
79400;BME280;68856;45.586;10.264;2023-04-24T01:31:14;98429.63;;;17.44;65.10
79400;BME280;68856;45.586;10.264;2023-04-24T01:33:42;98428.66;;;17.49;65.40
79400;BME280;68856;45.586;10.264;2023-04-24T01:36:10;98428.97;;;17.39;65.38
79400;BME280;68856;45.586;10.264;2023-04-24T01:38:37;98419.41;;;17.28;65.97
79400;BME280;68856;45.586;10.264;2023-04-24T01:41:03;98422.59;;;17.13;66.99
79400;BME280;68856;45.586;10.264;2023-04-24T01:43:30;98425.19;;;17.18;66.83
79400;BME280;68856;45.586;10.264;2023-04-24T01:45:57;98418.44;;;17.32;66.53
79400;BME280;68856;45.586;10.264;2023-04-24T01:48:24;98425.34;;;17.13;67.51
79400;BME280;68856;45.586;10.264;2023-04-24T01:50:50;98424.81;;;17.02;67.80
79400;BME280;68856;45.586;10.264;2023-04-24T01:53:16;98421.75;;;17.04;68.55
79400;BME280;68856;45.586;10.264;2023-04-24T01:55:42;98417.53;;;16.98;68.16
79400;BME280;68856;45.586;10.264;2023-04-24T01:58:09;98417.09;;;17.13;67.91
79400;BME280;68856;45.586;10.264;2023-04-24T02:00:35;98414.31;;;17.04;68.01
79400;BME280;68856;45.586;10.264;2023-04-24T02:03:01;98416.75;;;16.66;69.61
79400;BME280;68856;45.586;10.264;2023-04-24T02:05:28;98417.75;;;16.70;69.65
79400;BME280;68856;45.586;10.264;2023-04-24T02:07:54;98423.97;;;16.93;69.20
79400;BME280;68856;45.586;10.264;2023-04-24T02:10:21;98414.28;;;16.87;68.82
79400;BME280;68856;45.586;10.264;2023-04-24T02:12:47;98420.09;;;16.94;68.69
79400;BME280;68856;45.586;10.264;2023-04-24T02:15:13;98422.19;;;16.89;68.65
79400;BME280;68856;45.586;10.264;2023-04-24T02:17:40;98425.00;;;16.75;69.02
79400;BME280;68856;45.586;10.264;2023-04-24T02:20:07;98427.84;;;16.92;67.84
79400;BME280;68856;45.586;10.264;2023-04-24T02:22:33;98425.94;;;17.01;67.09
79400;BME280;68856;45.586;10.264;2023-04-24T02:25:00;98426.38;;;16.86;67.41
79400;BME280;68856;45.586;10.264;2023-04-24T02:27:26;98424.28;;;16.92;67.72
79400;BME280;68856;45.586;10.264;2023-04-24T02:29:53;98424.63;;;16.99;66.87
79400;BME280;68856;45.586;10.264;2023-04-24T02:32:19;98421.25;;;17.02;66.18
79400;BME280;68856;45.586;10.264;2023-04-24T02:34:45;98420.44;;;16.93;66.91
79400;BME280;68856;45.586;10.264;2023-04-24T02:37:11;98420.56;;;16.88;66.82
79400;BME280;68856;45.586;10.264;2023-04-24T02:39:38;98415.81;;;16.71;69.15
79400;BME280;68856;45.586;10.264;2023-04-24T02:42:04;98411.34;;;16.83;68.35
79400;BME280;68856;45.586;10.264;2023-04-24T02:44:31;98412.72;;;16.64;69.44
79400;BME280;68856;45.586;10.264;2023-04-24T02:46:57;98410.19;;;16.76;68.83
79400;BME280;68856;45.586;10.264;2023-04-24T02:49:23;98415.50;;;16.50;69.32
79400;BME280;68856;45.586;10.264;2023-04-24T02:51:50;98433.03;;;16.18;69.71
79400;BME280;68856;45.586;10.264;2023-04-24T02:54:16;98434.59;;;16.55;69.11
79400;BME280;68856;45.586;10.264;2023-04-24T02:56:42;98437.41;;;16.64;68.89
79400;BME280;68856;45.586;10.264;2023-04-24T02:59:09;98438.38;;;16.68;69.13
79400;BME280;68856;45.586;10.264;2023-04-24T03:01:36;98436.31;;;16.73;68.45
79400;BME280;68856;45.586;10.264;2023-04-24T03:04:02;98436.44;;;16.68;69.08
79400;BME280;68856;45.586;10.264;2023-04-24T03:06:29;98431.09;;;16.63;69.00
79400;BME280;68856;45.586;10.264;2023-04-24T03:08:57;98435.34;;;16.69;69.27
79400;BME280;68856;45.586;10.264;2023-04-24T03:11:23;98443.78;;;16.81;69.26
79400;BME280;68856;45.586;10.264;2023-04-24T03:13:49;98448.03;;;16.57;70.17
79400;BME280;68856;45.586;10.264;2023-04-24T03:16:16;98450.97;;;16.47;69.82
79400;BME280;68856;45.586;10.264;2023-04-24T03:18:42;98454.66;;;16.42;68.81
79400;BME280;68856;45.586;10.264;2023-04-24T03:21:08;98451.75;;;16.39;68.62
79400;BME280;68856;45.586;10.264;2023-04-24T03:23:34;98448.09;;;16.52;68.48
79400;BME280;68856;45.586;10.264;2023-04-24T03:26:01;98451.41;;;16.62;68.10
79400;BME280;68856;45.586;10.264;2023-04-24T03:28:28;98443.69;;;16.42;69.57
79400;BME280;68856;45.586;10.264;2023-04-24T03:30:54;98435.53;;;16.29;70.40
79400;BME280;68856;45.586;10.264;2023-04-24T03:33:20;98429.03;;;16.47;69.48
79400;BME280;68856;45.586;10.264;2023-04-24T03:35:46;98422.75;;;16.46;69.59
79400;BME280;68856;45.586;10.264;2023-04-24T03:38:13;98424.13;;;16.57;69.63
79400;BME280;68856;45.586;10.264;2023-04-24T03:40:39;98419.38;;;16.49;69.91
79400;BME280;68856;45.586;10.264;2023-04-24T03:43:05;98428.25;;;16.46;69.04
79400;BME280;68856;45.586;10.264;2023-04-24T03:45:32;98421.31;;;16.49;68.29
79400;BME280;68856;45.586;10.264;2023-04-24T03:47:58;98413.88;;;16.49;68.08
79400;BME280;68856;45.586;10.264;2023-04-24T03:50:24;98406.59;;;16.45;67.92
79400;BME280;68856;45.586;10.264;2023-04-24T03:52:52;98405.31;;;16.42;67.79
79400;BME280;68856;45.586;10.264;2023-04-24T03:55:18;98389.75;;;16.29;68.51
79400;BME280;68856;45.586;10.264;2023-04-24T03:57:44;98386.47;;;16.18;68.89
79400;BME280;68856;45.586;10.264;2023-04-24T04:00:11;98370.56;;;16.29;68.02
79400;BME280;68856;45.586;10.264;2023-04-24T04:02:38;98371.84;;;16.23;67.73
79400;BME280;68856;45.586;10.264;2023-04-24T04:05:04;98362.84;;;16.31;68.36
79400;BME280;68856;45.586;10.264;2023-04-24T04:07:31;98360.63;;;16.33;67.71
79400;BME280;68856;45.586;10.264;2023-04-24T04:09:57;98368.22;;;16.14;68.79
79400;BME280;68856;45.586;10.264;2023-04-24T04:12:23;98369.06;;;15.92;69.02
79400;BME280;68856;45.586;10.264;2023-04-24T04:14:49;98374.03;;;16.12;69.63
79400;BME280;68856;45.586;10.264;2023-04-24T04:17:16;98370.03;;;16.18;68.45
79400;BME280;68856;45.586;10.264;2023-04-24T04:19:42;98372.00;;;16.27;68.05
79400;BME280;68856;45.586;10.264;2023-04-24T04:22:08;98375.44;;;16.32;68.01
79400;BME280;68856;45.586;10.264;2023-04-24T04:24:34;98371.75;;;16.37;67.93
79400;BME280;68856;45.586;10.264;2023-04-24T04:27:04;98365.63;;;16.40;68.02
79400;BME280;68856;45.586;10.264;2023-04-24T04:29:31;98374.84;;;16.44;67.12
79400;BME280;68856;45.586;10.264;2023-04-24T04:31:58;98379.19;;;16.36;67.48
79400;BME280;68856;45.586;10.264;2023-04-24T04:34:24;98380.53;;;15.94;67.89
79400;BME280;68856;45.586;10.264;2023-04-24T04:36:50;98384.31;;;16.07;67.42
79400;BME280;68856;45.586;10.264;2023-04-24T04:39:17;98388.84;;;16.11;67.61
79400;BME280;68856;45.586;10.264;2023-04-24T04:41:44;98383.84;;;16.13;68.14
79400;BME280;68856;45.586;10.264;2023-04-24T04:44:14;98397.88;;;16.12;68.17
79400;BME280;68856;45.586;10.264;2023-04-24T04:46:41;98395.50;;;16.19;68.49
79400;BME280;68856;45.586;10.264;2023-04-24T04:49:07;98394.69;;;16.18;68.36
79400;BME280;68856;45.586;10.264;2023-04-24T04:51:34;98397.00;;;16.03;69.27
79400;BME280;68856;45.586;10.264;2023-04-24T04:54:01;98403.28;;;16.03;68.26
79400;BME280;68856;45.586;10.264;2023-04-24T04:56:27;98407.47;;;16.01;67.79
79400;BME280;68856;45.586;10.264;2023-04-24T04:58:54;98403.97;;;15.87;69.16
79400;BME280;68856;45.586;10.264;2023-04-24T05:01:20;98403.41;;;15.76;68.71
79400;BME280;68856;45.586;10.264;2023-04-24T05:03:48;98399.59;;;15.64;68.16
79400;BME280;68856;45.586;10.264;2023-04-24T05:06:15;98399.75;;;15.81;68.26
79400;BME280;68856;45.586;10.264;2023-04-24T05:08:41;98402.22;;;15.91;67.24
79400;BME280;68856;45.586;10.264;2023-04-24T05:11:07;98400.44;;;15.86;67.43
79400;BME280;68856;45.586;10.264;2023-04-24T05:13:34;98395.78;;;15.87;67.59
79400;BME280;68856;45.586;10.264;2023-04-24T05:16:00;98398.56;;;15.73;67.95
79400;BME280;68856;45.586;10.264;2023-04-24T05:18:26;98394.25;;;15.45;68.90
79400;BME280;68856;45.586;10.264;2023-04-24T05:20:52;98392.03;;;15.47;69.21
79400;BME280;68856;45.586;10.264;2023-04-24T05:23:19;98398.09;;;15.44;69.48
79400;BME280;68856;45.586;10.264;2023-04-24T05:25:45;98393.50;;;15.67;68.90
79400;BME280;68856;45.586;10.264;2023-04-24T05:28:12;98394.31;;;15.67;69.63
79400;BME280;68856;45.586;10.264;2023-04-24T05:30:38;98391.03;;;15.79;70.13
79400;BME280;68856;45.586;10.264;2023-04-24T05:33:04;98404.03;;;15.95;68.84
79400;BME280;68856;45.586;10.264;2023-04-24T05:35:31;98405.03;;;15.99;69.11
79400;BME280;68856;45.586;10.264;2023-04-24T05:37:57;98405.53;;;16.01;68.47
79400;BME280;68856;45.586;10.264;2023-04-24T05:40:24;98406.47;;;15.97;68.55
79400;BME280;68856;45.586;10.264;2023-04-24T05:42:50;98409.72;;;15.99;69.43
79400;BME280;68856;45.586;10.264;2023-04-24T05:45:16;98412.31;;;16.04;69.22
79400;BME280;68856;45.586;10.264;2023-04-24T05:47:43;98420.59;;;15.90;68.68
79400;BME280;68856;45.586;10.264;2023-04-24T05:50:10;98418.28;;;16.06;68.52
79400;BME280;68856;45.586;10.264;2023-04-24T05:52:36;98420.34;;;16.23;67.33
79400;BME280;68856;45.586;10.264;2023-04-24T05:55:03;98418.03;;;16.16;67.56
79400;BME280;68856;45.586;10.264;2023-04-24T05:57:29;98413.31;;;16.08;68.27
79400;BME280;68856;45.586;10.264;2023-04-24T05:59:56;98411.38;;;16.08;68.51
79400;BME280;68856;45.586;10.264;2023-04-24T06:02:22;98413.31;;;15.86;69.68
79400;BME280;68856;45.586;10.264;2023-04-24T06:04:48;98420.53;;;15.82;70.08
79400;BME280;68856;45.586;10.264;2023-04-24T06:07:15;98424.50;;;15.76;68.88
79400;BME280;68856;45.586;10.264;2023-04-24T06:09:41;98422.72;;;15.57;68.86
79400;BME280;68856;45.586;10.264;2023-04-24T06:12:07;98428.19;;;15.71;69.29
79400;BME280;68856;45.586;10.264;2023-04-24T06:14:34;98426.88;;;15.91;69.87
79400;BME280;68856;45.586;10.264;2023-04-24T06:17:01;98432.19;;;16.09;68.29
79400;BME280;68856;45.586;10.264;2023-04-24T06:19:27;98442.44;;;15.82;68.30
79400;BME280;68856;45.586;10.264;2023-04-24T06:21:53;98431.41;;;15.95;68.09
79400;BME280;68856;45.586;10.264;2023-04-24T06:24:19;98427.53;;;16.10;66.99
79400;BME280;68856;45.586;10.264;2023-04-24T06:26:46;98423.53;;;16.16;66.59
79400;BME280;68856;45.586;10.264;2023-04-24T06:29:12;98427.69;;;16.13;66.23
79400;BME280;68856;45.586;10.264;2023-04-24T06:31:38;98420.66;;;16.21;67.38
79400;BME280;68856;45.586;10.264;2023-04-24T06:34:05;98418.03;;;16.16;66.78
79400;BME280;68856;45.586;10.264;2023-04-24T06:36:31;98420.09;;;16.10;67.68
79400;BME280;68856;45.586;10.264;2023-04-24T06:39:00;98427.88;;;16.17;67.16
79400;BME280;68856;45.586;10.264;2023-04-24T06:41:26;98427.16;;;16.25;68.54
79400;BME280;68856;45.586;10.264;2023-04-24T06:43:53;98430.63;;;16.17;69.53
79400;BME280;68856;45.586;10.264;2023-04-24T06:46:19;98434.00;;;16.14;69.58
79400;BME280;68856;45.586;10.264;2023-04-24T06:48:48;98413.31;;;16.08;69.82
79400;BME280;68856;45.586;10.264;2023-04-24T06:51:14;98431.81;;;16.25;68.64
79400;BME280;68856;45.586;10.264;2023-04-24T06:53:40;98426.94;;;16.21;67.69
79400;BME280;68856;45.586;10.264;2023-04-24T06:56:06;98428.13;;;16.29;69.53
79400;BME280;68856;45.586;10.264;2023-04-24T06:58:33;98435.31;;;16.47;68.68
79400;BME280;68856;45.586;10.264;2023-04-24T07:00:59;98434.38;;;16.52;67.67
79400;BME280;68856;45.586;10.264;2023-04-24T07:03:25;98430.22;;;16.54;67.81
79400;BME280;68856;45.586;10.264;2023-04-24T07:05:51;98426.72;;;16.62;68.56
79400;BME280;68856;45.586;10.264;2023-04-24T07:08:19;98431.66;;;16.74;68.45
79400;BME280;68856;45.586;10.264;2023-04-24T07:10:46;98429.19;;;16.72;68.94
79400;BME280;68856;45.586;10.264;2023-04-24T07:13:12;98439.41;;;16.80;68.00
79400;BME280;68856;45.586;10.264;2023-04-24T07:15:39;98441.53;;;16.83;68.01
79400;BME280;68856;45.586;10.264;2023-04-24T07:18:06;98451.25;;;16.98;67.34
79400;BME280;68856;45.586;10.264;2023-04-24T07:20:33;98453.50;;;16.96;61.67
79400;BME280;68856;45.586;10.264;2023-04-24T07:23:00;98447.16;;;16.78;63.23
79400;BME280;68856;45.586;10.264;2023-04-24T07:25:26;98454.47;;;16.92;65.82
79400;BME280;68856;45.586;10.264;2023-04-24T07:27:52;98463.38;;;16.97;65.74
79400;BME280;68856;45.586;10.264;2023-04-24T07:30:19;98453.03;;;16.94;63.77
79400;BME280;68856;45.586;10.264;2023-04-24T07:32:45;98456.31;;;17.05;63.23
79400;BME280;68856;45.586;10.264;2023-04-24T07:35:11;98456.50;;;17.17;61.80
79400;BME280;68856;45.586;10.264;2023-04-24T07:37:37;98455.03;;;17.11;62.61
79400;BME280;68856;45.586;10.264;2023-04-24T07:40:04;98459.72;;;17.10;58.24
79400;BME280;68856;45.586;10.264;2023-04-24T07:42:30;98461.53;;;17.23;59.21
79400;BME280;68856;45.586;10.264;2023-04-24T07:44:56;98463.00;;;17.21;60.88
79400;BME280;68856;45.586;10.264;2023-04-24T07:47:23;98461.22;;;16.86;57.68
79400;BME280;68856;45.586;10.264;2023-04-24T07:49:49;98459.63;;;16.93;59.46
79400;BME280;68856;45.586;10.264;2023-04-24T07:52:16;98460.91;;;16.87;60.12
79400;BME280;68856;45.586;10.264;2023-04-24T07:54:42;98463.38;;;16.97;58.29
79400;BME280;68856;45.586;10.264;2023-04-24T07:57:08;98453.78;;;16.77;58.69
79400;BME280;68856;45.586;10.264;2023-04-24T07:59:35;98457.47;;;17.12;59.26
79400;BME280;68856;45.586;10.264;2023-04-24T08:02:01;98460.00;;;17.00;58.05
79400;BME280;68856;45.586;10.264;2023-04-24T08:04:27;98464.09;;;17.20;60.12
79400;BME280;68856;45.586;10.264;2023-04-24T08:06:54;98464.50;;;16.96;59.06
79400;BME280;68856;45.586;10.264;2023-04-24T08:09:20;98469.06;;;17.09;60.75
79400;BME280;68856;45.586;10.264;2023-04-24T08:11:46;98470.75;;;16.88;59.58
79400;BME280;68856;45.586;10.264;2023-04-24T08:14:12;98466.03;;;16.80;60.11
79400;BME280;68856;45.586;10.264;2023-04-24T08:16:39;98474.78;;;16.60;56.17
79400;BME280;68856;45.586;10.264;2023-04-24T08:19:05;98474.28;;;16.58;56.16
79400;BME280;68856;45.586;10.264;2023-04-24T08:21:32;98481.94;;;16.47;59.02
79400;BME280;68856;45.586;10.264;2023-04-24T08:23:58;98476.00;;;16.76;57.62
79400;BME280;68856;45.586;10.264;2023-04-24T08:26:25;98468.28;;;16.78;58.63
79400;BME280;68856;45.586;10.264;2023-04-24T08:28:51;98469.50;;;16.94;56.19
79400;BME280;68856;45.586;10.264;2023-04-24T08:31:17;98465.50;;;17.09;55.50
79400;BME280;68856;45.586;10.264;2023-04-24T08:33:44;98464.88;;;17.12;54.04
79400;BME280;68856;45.586;10.264;2023-04-24T08:36:11;98466.50;;;17.13;54.27
79400;BME280;68856;45.586;10.264;2023-04-24T08:38:38;98459.91;;;17.22;54.77
79400;BME280;68856;45.586;10.264;2023-04-24T08:41:04;98463.66;;;17.26;52.50
79400;BME280;68856;45.586;10.264;2023-04-24T08:43:33;98466.56;;;17.30;53.97
79400;BME280;68856;45.586;10.264;2023-04-24T08:46:03;98455.78;;;17.42;52.91
79400;BME280;68856;45.586;10.264;2023-04-24T08:48:30;98464.97;;;17.37;53.83
79400;BME280;68856;45.586;10.264;2023-04-24T08:50:58;98459.56;;;17.55;56.87
79400;BME280;68856;45.586;10.264;2023-04-24T08:53:26;98461.16;;;17.56;53.22
79400;BME280;68856;45.586;10.264;2023-04-24T08:55:55;98457.94;;;17.54;53.08
79400;BME280;68856;45.586;10.264;2023-04-24T08:58:26;98450.63;;;17.49;53.20
79400;BME280;68856;45.586;10.264;2023-04-24T09:00:55;98463.63;;;17.18;51.95
79400;BME280;68856;45.586;10.264;2023-04-24T09:03:21;98460.63;;;17.36;52.60
79400;BME280;68856;45.586;10.264;2023-04-24T09:05:49;98463.22;;;17.50;52.47
79400;BME280;68856;45.586;10.264;2023-04-24T09:08:18;98455.50;;;17.61;52.80
79400;BME280;68856;45.586;10.264;2023-04-24T09:10:45;98455.69;;;17.64;52.75
79400;BME280;68856;45.586;10.264;2023-04-24T09:13:11;98456.50;;;17.65;52.91
79400;BME280;68856;45.586;10.264;2023-04-24T09:15:40;98459.88;;;17.62;51.84
79400;BME280;68856;45.586;10.264;2023-04-24T09:18:07;98457.09;;;17.44;50.66
79400;BME280;68856;45.586;10.264;2023-04-24T09:20:33;98461.19;;;17.64;52.88
79400;BME280;68856;45.586;10.264;2023-04-24T09:23:02;98456.66;;;17.60;52.79
79400;BME280;68856;45.586;10.264;2023-04-24T09:25:35;98456.16;;;17.66;53.09
79400;BME280;68856;45.586;10.264;2023-04-24T09:28:05;98457.94;;;17.62;51.96
79400;BME280;68856;45.586;10.264;2023-04-24T09:30:32;98459.25;;;17.65;50.66
79400;BME280;68856;45.586;10.264;2023-04-24T09:33:14;98455.19;;;17.71;51.01
79400;BME280;68856;45.586;10.264;2023-04-24T09:35:52;98457.16;;;17.79;50.64
79400;BME280;68856;45.586;10.264;2023-04-24T09:38:19;98456.00;;;17.63;51.03
79400;BME280;68856;45.586;10.264;2023-04-24T09:40:53;98454.41;;;17.79;51.49
79400;BME280;68856;45.586;10.264;2023-04-24T09:43:19;98448.09;;;17.78;50.22
79400;BME280;68856;45.586;10.264;2023-04-24T09:45:45;98448.44;;;17.85;51.89
79400;BME280;68856;45.586;10.264;2023-04-24T09:48:11;98445.69;;;17.94;53.19
79400;BME280;68856;45.586;10.264;2023-04-24T09:50:38;98441.47;;;17.96;55.07
79400;BME280;68856;45.586;10.264;2023-04-24T09:53:05;98439.88;;;17.87;53.67
79400;BME280;68856;45.586;10.264;2023-04-24T09:55:42;98447.63;;;18.02;56.07
79400;BME280;68856;45.586;10.264;2023-04-24T09:58:10;98444.88;;;17.76;53.51
79400;BME280;68856;45.586;10.264;2023-04-24T10:00:36;98447.31;;;17.95;53.57
79400;BME280;68856;45.586;10.264;2023-04-24T10:03:04;98448.75;;;17.92;53.12
79400;BME280;68856;45.586;10.264;2023-04-24T10:05:32;98439.38;;;18.11;53.18
79400;BME280;68856;45.586;10.264;2023-04-24T10:08:04;98440.66;;;18.04;52.28
79400;BME280;68856;45.586;10.264;2023-04-24T10:10:32;98437.75;;;18.18;52.85
79400;BME280;68856;45.586;10.264;2023-04-24T10:13:00;98443.56;;;18.25;51.72
79400;BME280;68856;45.586;10.264;2023-04-24T10:15:27;98450.53;;;18.31;53.15
79400;BME280;68856;45.586;10.264;2023-04-24T10:17:54;98445.97;;;18.35;52.94
79400;BME280;68856;45.586;10.264;2023-04-24T10:20:23;98448.06;;;18.38;52.94
79400;BME280;68856;45.586;10.264;2023-04-24T10:22:53;98454.22;;;18.44;52.96
79400;BME280;68856;45.586;10.264;2023-04-24T10:25:21;98451.16;;;18.37;51.00
79400;BME280;68856;45.586;10.264;2023-04-24T10:27:49;98460.38;;;18.41;52.83
79400;BME280;68856;45.586;10.264;2023-04-24T10:30:16;98458.25;;;18.46;51.70
79400;BME280;68856;45.586;10.264;2023-04-24T10:32:42;98454.88;;;18.41;52.30
79400;BME280;68856;45.586;10.264;2023-04-24T10:35:10;98454.88;;;18.58;52.84
79400;BME280;68856;45.586;10.264;2023-04-24T10:37:40;98456.97;;;18.61;51.87
79400;BME280;68856;45.586;10.264;2023-04-24T10:40:09;98452.63;;;18.60;51.88
79400;BME280;68856;45.586;10.264;2023-04-24T10:42:39;98453.53;;;18.73;51.94
79400;BME280;68856;45.586;10.264;2023-04-24T10:45:07;98461.28;;;18.79;52.55
79400;BME280;68856;45.586;10.264;2023-04-24T10:47:42;98462.63;;;18.73;50.18
79400;BME280;68856;45.586;10.264;2023-04-24T10:50:10;98468.28;;;18.68;50.28
79400;BME280;68856;45.586;10.264;2023-04-24T10:52:50;98465.19;;;18.70;51.21
79400;BME280;68856;45.586;10.264;2023-04-24T10:55:42;98461.63;;;18.78;50.78
79400;BME280;68856;45.586;10.264;2023-04-24T10:58:09;98465.47;;;18.85;50.67
79400;BME280;68856;45.586;10.264;2023-04-24T11:00:40;98465.28;;;18.99;50.90
79400;BME280;68856;45.586;10.264;2023-04-24T11:03:26;98463.34;;;18.99;50.05
79400;BME280;68856;45.586;10.264;2023-04-24T11:05:57;98458.13;;;19.06;49.62
79400;BME280;68856;45.586;10.264;2023-04-24T11:13:25;98461.34;;;19.08;49.40
79400;BME280;68856;45.586;10.264;2023-04-24T11:16:20;98459.66;;;19.24;48.73
79400;BME280;68856;45.586;10.264;2023-04-24T11:18:51;98464.97;;;19.29;49.38
79400;BME280;68856;45.586;10.264;2023-04-24T11:21:21;98468.56;;;19.30;47.63
79400;BME280;68856;45.586;10.264;2023-04-24T11:23:48;98459.47;;;19.38;48.97
79400;BME280;68856;45.586;10.264;2023-04-24T11:26:22;98462.34;;;19.42;47.26
79400;BME280;68856;45.586;10.264;2023-04-24T11:28:51;98455.06;;;19.46;46.27
79400;BME280;68856;45.586;10.264;2023-04-24T11:31:44;98457.84;;;19.66;47.06
79400;BME280;68856;45.586;10.264;2023-04-24T11:34:16;98457.16;;;19.69;45.78
79400;BME280;68856;45.586;10.264;2023-04-24T11:36:48;98454.19;;;19.74;46.66
79400;BME280;68856;45.586;10.264;2023-04-24T11:39:15;98449.66;;;19.78;46.67
79400;BME280;68856;45.586;10.264;2023-04-24T11:41:41;98442.72;;;19.93;48.31
79400;BME280;68856;45.586;10.264;2023-04-24T11:44:09;98450.72;;;19.86;45.63
79400;BME280;68856;45.586;10.264;2023-04-24T11:46:36;98442.84;;;19.76;46.00
79400;BME280;68856;45.586;10.264;2023-04-24T11:49:03;98438.16;;;19.97;49.77
79400;BME280;68856;45.586;10.264;2023-04-24T11:51:30;98444.84;;;20.08;46.94
79400;BME280;68856;45.586;10.264;2023-04-24T11:53:58;98437.00;;;19.98;45.30
79400;BME280;68856;45.586;10.264;2023-04-24T11:56:25;98434.25;;;19.98;45.38
79400;BME280;68856;45.586;10.264;2023-04-24T11:58:54;98434.19;;;19.86;46.04
79400;BME280;68856;45.586;10.264;2023-04-24T12:01:23;98426.59;;;19.83;46.18
79400;BME280;68856;45.586;10.264;2023-04-24T12:03:50;98423.88;;;19.74;44.84
79400;BME280;68856;45.586;10.264;2023-04-24T12:06:19;98430.66;;;19.77;44.60
79400;BME280;68856;45.586;10.264;2023-04-24T12:08:49;98418.38;;;19.74;46.23
79400;BME280;68856;45.586;10.264;2023-04-24T12:11:18;98417.44;;;19.70;46.04
79400;BME280;68856;45.586;10.264;2023-04-24T12:13:45;98415.56;;;19.83;47.50
79400;BME280;68856;45.586;10.264;2023-04-24T12:16:11;98418.91;;;19.88;48.00
79400;BME280;68856;45.586;10.264;2023-04-24T12:18:45;98418.38;;;19.95;47.65
79400;BME280;68856;45.586;10.264;2023-04-24T12:21:16;98416.00;;;20.06;46.73
79400;BME280;68856;45.586;10.264;2023-04-24T12:23:44;98402.31;;;19.97;45.35
79400;BME280;68856;45.586;10.264;2023-04-24T12:26:17;98397.47;;;19.73;46.30
79400;BME280;68856;45.586;10.264;2023-04-24T12:28:48;98393.56;;;19.74;46.97
79400;BME280;68856;45.586;10.264;2023-04-24T12:31:17;98397.28;;;19.99;46.76
79400;BME280;68856;45.586;10.264;2023-04-24T12:33:46;98395.22;;;20.08;45.74
79400;BME280;68856;45.586;10.264;2023-04-24T12:36:13;98390.66;;;20.12;46.08
79400;BME280;68856;45.586;10.264;2023-04-24T12:38:42;98391.78;;;20.11;44.76
79400;BME280;68856;45.586;10.264;2023-04-24T12:41:12;98380.91;;;20.15;45.24
79400;BME280;68856;45.586;10.264;2023-04-24T12:43:40;98379.63;;;20.12;44.17
79400;BME280;68856;45.586;10.264;2023-04-24T12:46:16;98378.69;;;20.08;43.48
79400;BME280;68856;45.586;10.264;2023-04-24T12:48:42;98377.41;;;20.26;44.48
79400;BME280;68856;45.586;10.264;2023-04-24T12:51:09;98383.06;;;20.30;44.42
79400;BME280;68856;45.586;10.264;2023-04-24T12:53:35;98375.22;;;20.32;44.40
79400;BME280;68856;45.586;10.264;2023-04-24T12:56:01;98366.06;;;20.40;46.04